Time;durP1;ratioP1;P1;durP2;ratioP2;P2;SDS_P1;SDS_P2;PMS_P1;PMS_P2;Temp;Humidity;BMP_temperature;BMP_pressure;BME280_temperature;BME280_humidity;BME280_pressure;Samples;Min_cycle;Max_cycle;Signal;HPM_P1;HPM_P2
2023/08/11 04:02:16;;;;;;;7.18;3.38;;;16.60;99.90;;;;;;5097834;23;20067;-66
2023/08/11 04:04:41;;;;;;;7.28;3.83;;;16.50;99.90;;;;;;4954687;29;20400;-64
2023/08/11 04:07:07;;;;;;;5.33;3.53;;;16.50;99.90;;;;;;4954965;29;20039;-64
2023/08/11 04:09:34;;;;;;;5.93;3.58;;;16.50;99.90;;;;;;4954571;29;20023;-64
2023/08/11 04:11:59;;;;;;;5.55;3.42;;;16.50;99.90;;;;;;4937423;29;20037;-64
2023/08/11 04:14:25;;;;;;;6.60;4.30;;;16.60;99.90;;;;;;4954777;29;20059;-65
2023/08/11 04:16:50;;;;;;;7.80;3.57;;;16.60;99.90;;;;;;4955241;28;20476;-69
2023/08/11 04:19:16;;;;;;;5.67;4.10;;;16.60;99.90;;;;;;4958175;29;20664;-69
2023/08/11 04:21:42;;;;;;;7.60;3.85;;;16.50;99.90;;;;;;4940989;29;20505;-69
2023/08/11 04:24:08;;;;;;;5.20;3.65;;;16.50;99.90;;;;;;4940831;29;20122;-69
2023/08/11 04:26:33;;;;;;;5.38;3.75;;;16.50;99.90;;;;;;4958542;29;20023;-69
2023/08/11 04:29:01;;;;;;;6.63;3.88;;;16.40;99.90;;;;;;4959868;29;20126;-69
2023/08/11 04:31:27;;;;;;;5.32;3.75;;;16.40;99.90;;;;;;4939801;29;20031;-69
2023/08/11 04:33:53;;;;;;;6.88;4.10;;;16.40;99.90;;;;;;4954101;28;20103;-69
2023/08/11 04:36:18;;;;;;;10.40;4.28;;;16.40;99.90;;;;;;4944928;29;20374;-69
2023/08/11 04:38:44;;;;;;;8.50;3.78;;;16.40;99.90;;;;;;4955720;29;20082;-69
2023/08/11 04:41:09;;;;;;;3.97;3.20;;;16.40;99.90;;;;;;4957396;28;20400;-69
2023/08/11 04:43:35;;;;;;;10.50;4.20;;;16.40;99.90;;;;;;4940223;29;20278;-69
2023/08/11 04:46:00;;;;;;;5.57;3.70;;;16.40;99.90;;;;;;4957795;29;20035;-69
2023/08/11 04:48:26;;;;;;;5.67;3.63;;;16.50;99.90;;;;;;4957379;29;20259;-69
2023/08/11 04:50:52;;;;;;;6.43;3.93;;;16.50;99.90;;;;;;4957873;28;20131;-69
2023/08/11 04:53:18;;;;;;;6.32;3.85;;;16.50;99.90;;;;;;4955985;29;20688;-68
2023/08/11 04:55:44;;;;;;;5.35;3.50;;;16.60;99.90;;;;;;4947782;29;20048;-68
2023/08/11 04:58:09;;;;;;;11.05;3.92;;;16.60;99.90;;;;;;4938330;29;20412;-69
2023/08/11 05:00:36;;;;;;;6.55;4.20;;;16.60;99.90;;;;;;4938193;29;20053;-69
2023/08/11 05:03:02;;;;;;;10.57;7.18;;;16.70;99.90;;;;;;4939265;29;20031;-69
2023/08/11 05:05:28;;;;;;;7.10;4.00;;;16.70;99.90;;;;;;4924235;29;20031;-69
2023/08/11 05:07:54;;;;;;;6.43;4.18;;;16.80;99.90;;;;;;4940988;29;20027;-69
2023/08/11 05:10:19;;;;;;;8.10;4.57;;;16.80;99.90;;;;;;4958072;29;20023;-69
2023/08/11 05:12:45;;;;;;;4.80;3.60;;;16.80;99.90;;;;;;4957673;29;20045;-69
2023/08/11 05:15:11;;;;;;;;;;;16.80;99.90;;;;;;4957602;29;20377;-69
2023/08/11 05:17:37;;;;;;;7.68;3.92;;;16.80;99.90;;;;;;4939944;29;20355;-69
2023/08/11 05:20:07;;;;;;;9.23;4.20;;;16.80;99.90;;;;;;4957529;29;20026;-69
2023/08/11 05:22:33;;;;;;;7.78;4.20;;;16.80;99.90;;;;;;4957628;29;20103;-69
2023/08/11 05:24:58;;;;;;;6.25;4.38;;;16.80;99.90;;;;;;4957373;29;20388;-70
2023/08/11 05:27:24;;;;;;;6.50;4.67;;;16.80;99.90;;;;;;4957874;29;20039;-69
2023/08/11 05:29:50;;;;;;;10.85;4.22;;;16.80;99.90;;;;;;4956905;28;20268;-69
2023/08/11 05:32:15;;;;;;;;;;;16.80;99.90;;;;;;4957932;29;20038;-70
2023/08/11 05:34:41;;;;;;;7.03;4.18;;;16.80;99.90;;;;;;4957748;29;20362;-70
2023/08/11 05:37:07;;;;;;;7.28;4.18;;;16.80;99.90;;;;;;4958006;29;20015;-69
2023/08/11 05:39:33;;;;;;;6.18;4.00;;;16.80;99.90;;;;;;4939857;29;20404;-68
2023/08/11 05:41:59;;;;;;;7.10;3.97;;;16.90;99.90;;;;;;4956506;29;20031;-68
2023/08/11 05:44:24;;;;;;;6.40;4.53;;;16.90;99.90;;;;;;4939513;29;20093;-69
2023/08/11 05:46:50;;;;;;;6.95;4.10;;;17.00;99.90;;;;;;4956665;29;20584;-68
2023/08/11 05:49:16;;;;;;;5.85;3.85;;;17.10;99.90;;;;;;4956850;29;20110;-66
2023/08/11 05:51:41;;;;;;;6.78;4.13;;;17.10;99.90;;;;;;4956571;29;20037;-70
2023/08/11 05:54:07;;;;;;;14.27;4.72;;;17.20;99.90;;;;;;4956763;29;20071;-68
2023/08/11 05:56:32;;;;;;;6.30;4.30;;;17.30;99.90;;;;;;4956492;29;20024;-68
2023/08/11 05:58:58;;;;;;;7.70;4.40;;;17.40;99.90;;;;;;4956371;29;20275;-68
2023/08/11 06:01:23;;;;;;;5.35;4.22;;;17.40;99.90;;;;;;4939087;29;20480;-68
2023/08/11 06:03:49;;;;;;;10.35;4.70;;;17.40;99.90;;;;;;4957091;29;20107;-68
2023/08/11 06:06:14;;;;;;;6.60;4.20;;;17.50;99.90;;;;;;4956368;29;20031;-68
2023/08/11 06:08:40;;;;;;;7.75;4.00;;;17.50;99.90;;;;;;4956134;29;20480;-68
2023/08/11 06:11:05;;;;;;;6.20;4.13;;;17.50;99.90;;;;;;4939442;29;20058;-68
2023/08/11 06:13:31;;;;;;;7.60;3.77;;;17.60;99.90;;;;;;4956646;29;20039;-68
2023/08/11 06:15:56;;;;;;;10.63;4.50;;;17.60;99.90;;;;;;4957535;29;20305;-68
2023/08/11 06:18:22;;;;;;;13.55;4.60;;;17.70;99.90;;;;;;4958602;29;20027;-69
2023/08/11 06:20:48;;;;;;;8.02;4.50;;;17.80;99.90;;;;;;4957744;29;20027;-68
2023/08/11 06:23:13;;;;;;;8.73;4.50;;;17.80;99.90;;;;;;4940136;29;20042;-69
2023/08/11 06:25:39;;;;;;;7.07;4.28;;;17.90;99.90;;;;;;4956991;29;20500;-69
2023/08/11 06:28:05;;;;;;;8.63;4.20;;;18.00;99.90;;;;;;4958870;29;20050;-69
2023/08/11 06:30:30;;;;;;;7.45;4.43;;;18.10;99.90;;;;;;4959383;29;20059;-69
2023/08/11 06:32:57;;;;;;;8.07;4.28;;;18.10;99.90;;;;;;4938511;29;20062;-68
2023/08/11 06:35:22;;;;;;;;;;;18.20;99.90;;;;;;4956680;29;20035;-68
2023/08/11 06:37:48;;;;;;;8.00;4.05;;;18.20;99.90;;;;;;4955989;29;19910;-69
2023/08/11 06:40:13;;;;;;;7.55;4.45;;;18.30;99.90;;;;;;4938246;29;20058;-68
2023/08/11 06:42:39;;;;;;;6.47;3.90;;;18.40;99.90;;;;;;4955774;29;20110;-68
2023/08/11 06:45:06;;;;;;;5.72;3.97;;;18.50;99.90;;;;;;4945796;29;20027;-69
2023/08/11 06:47:33;;;;;;;6.03;4.30;;;18.50;99.90;;;;;;4948581;29;20106;-68
2023/08/11 06:49:59;;;;;;;6.03;3.90;;;18.60;99.90;;;;;;4971033;29;20030;-69
2023/08/11 06:52:25;;;;;;;7.63;4.10;;;18.70;99.90;;;;;;4952948;29;20024;-69
2023/08/11 06:54:51;;;;;;;6.32;4.15;;;18.80;99.90;;;;;;4958613;29;20275;-68
2023/08/11 06:57:20;;;;;;;9.68;4.72;;;18.90;99.90;;;;;;4956650;29;20082;-68
2023/08/11 06:59:45;;;;;;;5.03;3.88;;;18.90;99.90;;;;;;4956834;29;20030;-69
2023/08/11 07:02:11;;;;;;;6.97;4.28;;;19.00;99.90;;;;;;4938779;29;20031;-68
2023/08/11 07:04:36;;;;;;;5.47;4.40;;;19.10;99.90;;;;;;4955938;29;20031;-70
2023/08/11 07:07:02;;;;;;;5.35;4.22;;;19.20;99.90;;;;;;4938039;29;20034;-69
2023/08/11 07:09:27;;;;;;;10.23;4.40;;;19.20;99.90;;;;;;4955499;29;20457;-70
2023/08/11 07:11:53;;;;;;;6.53;3.88;;;19.30;99.90;;;;;;4938151;29;20052;-70
2023/08/11 07:14:18;;;;;;;8.05;4.50;;;19.30;99.90;;;;;;4955528;29;20035;-70
2023/08/11 07:16:44;;;;;;;6.00;4.30;;;19.40;99.90;;;;;;4956230;29;20038;-70
2023/08/11 07:19:10;;;;;;;7.80;4.53;;;19.50;99.90;;;;;;4956721;29;20023;-69
2023/08/11 07:21:35;;;;;;;10.48;4.50;;;19.60;99.90;;;;;;4955889;29;20034;-69
2023/08/11 07:24:00;;;;;;;6.72;3.92;;;19.70;99.90;;;;;;4956162;29;20495;-68
2023/08/11 07:26:26;;;;;;;10.50;4.18;;;19.80;99.90;;;;;;4955982;29;20031;-69
2023/08/11 07:28:52;;;;;;;16.52;5.07;;;19.90;99.90;;;;;;4955145;29;20068;-68
2023/08/11 07:31:17;;;;;;;12.30;4.78;;;19.90;99.90;;;;;;4937931;29;20034;-68
2023/08/11 07:33:43;;;;;;;7.60;4.57;;;19.90;99.90;;;;;;4937803;29;20032;-69
2023/08/11 07:36:09;;;;;;;8.23;4.28;;;20.00;99.90;;;;;;4955138;29;20027;-69
2023/08/11 07:38:34;;;;;;;;;;;20.10;99.90;;;;;;4955549;29;20031;-69
2023/08/11 07:41:00;;;;;;;8.77;4.50;;;20.10;99.90;;;;;;4955604;29;20009;-69
2023/08/11 07:43:25;;;;;;;9.15;4.82;;;20.20;99.90;;;;;;4938528;29;20035;-67
2023/08/11 07:45:51;;;;;;;5.15;4.03;;;20.30;99.90;;;;;;4955024;29;20040;-68
2023/08/11 07:48:18;;;;;;;5.63;4.18;;;20.40;99.90;;;;;;4937766;29;20081;-68
2023/08/11 07:50:44;;;;;;;8.95;4.90;;;20.50;99.90;;;;;;4956257;29;20023;-69
2023/08/11 07:53:10;;;;;;;7.30;4.53;;;20.70;99.90;;;;;;4962026;28;20027;-68
2023/08/11 07:55:36;;;;;;;;;;;20.70;99.90;;;;;;4963576;29;20038;-69
2023/08/11 07:58:02;;;;;;;8.48;4.50;;;20.70;99.90;;;;;;4960231;29;19910;-69
2023/08/11 08:00:28;;;;;;;10.40;4.40;;;20.70;99.90;;;;;;4942290;28;20020;-70
2023/08/11 08:02:54;;;;;;;13.55;4.70;;;20.80;99.90;;;;;;4942649;29;20075;-68
2023/08/11 08:05:19;;;;;;;9.32;4.78;;;20.90;99.90;;;;;;4942733;29;20031;-69
2023/08/11 08:07:46;;;;;;;9.25;4.65;;;21.00;99.90;;;;;;4958887;29;20069;-69
2023/08/11 08:10:14;;;;;;;6.85;4.28;;;21.10;99.90;;;;;;4959227;28;20523;-68
2023/08/11 08:12:42;;;;;;;6.57;4.47;;;21.30;99.90;;;;;;4959023;29;20027;-68
2023/08/11 08:15:09;;;;;;;7.07;4.38;;;21.40;99.90;;;;;;4956504;29;20040;-69
2023/08/11 08:17:35;;;;;;;10.20;4.75;;;21.70;99.90;;;;;;4959757;29;20070;-69
2023/08/11 08:20:01;;;;;;;7.15;3.90;;;21.80;99.90;;;;;;4943647;29;20105;-69
2023/08/11 08:22:27;;;;;;;6.20;4.28;;;21.90;99.90;;;;;;4959593;28;20392;-66
2023/08/11 08:24:53;;;;;;;6.72;4.20;;;22.10;99.90;;;;;;4941993;29;20051;-69
2023/08/11 08:27:24;;;;;;;6.07;4.03;;;22.30;99.90;;;;;;4959236;29;20023;-70
2023/08/11 08:29:53;;;;;;;6.10;4.15;;;22.60;99.90;;;;;;4959668;29;20472;-68
2023/08/11 08:32:22;;;;;;;6.85;3.67;;;24.20;99.90;;;;;;4959551;28;20105;-69
2023/08/11 08:34:48;;;;;;;7.78;3.60;;;27.10;99.90;;;;;;4960139;29;20078;-69
2023/08/11 08:37:20;;;;;;;4.93;3.90;;;29.80;96.20;;;;;;4960010;29;20019;-70
2023/08/11 08:39:48;;;;;;;6.72;3.35;;;31.60;93.60;;;;;;4960804;29;20058;-69
2023/08/11 08:42:15;;;;;;;4.38;3.30;;;34.10;90.20;;;;;;4966486;28;20024;-70
2023/08/11 08:44:42;;;;;;;4.90;3.33;;;34.90;84.70;;;;;;4969118;29;20020;-70
2023/08/11 08:47:09;;;;;;;5.80;3.28;;;36.20;80.10;;;;;;4966872;29;20034;-70
2023/08/11 08:49:38;;;;;;;4.72;3.00;;;37.20;77.50;;;;;;4951162;29;20031;-70
2023/08/11 08:52:05;;;;;;;4.68;3.20;;;38.00;73.20;;;;;;4966735;28;20023;-70
2023/08/11 08:54:31;;;;;;;3.88;3.50;;;37.80;71.30;;;;;;4944420;29;20448;-70
2023/08/11 08:56:59;;;;;;;4.90;3.22;;;38.40;70.40;;;;;;4960986;29;20024;-72
2023/08/11 08:59:24;;;;;;;5.10;3.22;;;39.40;68.70;;;;;;4944381;29;20024;-67
2023/08/11 09:01:50;;;;;;;5.72;3.30;;;39.90;67.20;;;;;;4959645;28;20090;-68
2023/08/11 09:04:18;;;;;;;4.90;3.25;;;40.90;65.00;;;;;;4958005;28;20051;-68
2023/08/11 09:06:44;;;;;;;3.95;3.55;;;41.40;63.80;;;;;;4960398;29;20082;-69
2023/08/11 09:09:10;;;;;;;6.65;3.30;;;39.70;63.70;;;;;;4960430;29;20028;-70
2023/08/11 09:11:38;;;;;;;3.95;3.13;;;39.70;63.90;;;;;;4940325;29;20023;-70
2023/08/11 09:14:08;;;;;;;3.85;3.30;;;39.40;64.00;;;;;;4956816;29;20042;-69
2023/08/11 09:16:34;;;;;;;5.35;3.08;;;39.40;63.90;;;;;;4957376;29;20028;-69
2023/08/11 09:19:00;;;;;;;5.68;3.72;;;40.40;62.90;;;;;;4957219;29;20542;-69
2023/08/11 09:21:26;;;;;;;5.55;3.30;;;41.30;62.10;;;;;;4956854;28;20058;-69
2023/08/11 09:23:56;;;;;;;5.20;3.22;;;42.20;61.10;;;;;;4956803;29;20456;-69
2023/08/11 09:26:23;;;;;;;6.55;3.67;;;42.10;60.60;;;;;;4956874;29;20114;-70
2023/08/11 09:28:49;;;;;;;4.10;3.38;;;43.10;59.60;;;;;;4957025;29;20558;-69
2023/08/11 09:31:15;;;;;;;4.07;3.67;;;43.80;58.80;;;;;;4957047;28;20055;-69
2023/08/11 09:33:40;;;;;;;4.70;3.60;;;43.80;57.90;;;;;;4957173;29;20054;-69
2023/08/11 09:36:06;;;;;;;4.07;3.50;;;43.90;57.50;;;;;;4958351;29;20129;-70
2023/08/11 09:38:32;;;;;;;4.63;2.90;;;44.30;56.80;;;;;;4941216;29;20554;-70
2023/08/11 09:41:03;;;;;;;3.90;3.42;;;44.20;56.40;;;;;;4943106;29;20039;-69
2023/08/11 09:43:30;;;;;;;6.05;3.03;;;44.50;56.90;;;;;;4960606;29;20102;-68
2023/08/11 09:45:59;;;;;;;3.53;2.83;;;44.70;55.70;;;;;;4958716;29;20027;-67
2023/08/11 09:48:25;;;;;;;3.90;3.15;;;45.10;55.00;;;;;;4957140;29;20035;-68
2023/08/11 09:50:52;;;;;;;3.33;2.72;;;44.90;54.50;;;;;;4941026;29;20028;-67
2023/08/11 09:53:19;;;;;;;4.35;2.70;;;44.90;54.30;;;;;;4957923;29;20488;-67
2023/08/11 09:55:48;;;;;;;5.43;3.20;;;44.80;53.70;;;;;;4940555;29;20055;-67
2023/08/11 09:58:15;;;;;;;5.20;3.40;;;44.50;54.10;;;;;;4957691;29;20106;-67
2023/08/11 10:00:40;;;;;;;3.28;2.97;;;43.80;54.40;;;;;;4939712;29;20449;-67
2023/08/11 10:03:12;;;;;;;6.05;3.20;;;43.60;54.60;;;;;;4939653;29;20031;-67
2023/08/11 10:05:42;;;;;;;4.10;3.22;;;43.80;54.50;;;;;;4956744;29;20055;-68
2023/08/11 10:08:17;;;;;;;7.97;3.42;;;43.90;54.60;;;;;;4957279;29;20038;-69
2023/08/11 10:10:43;;;;;;;7.95;3.22;;;43.80;54.60;;;;;;4957529;28;20027;-68
2023/08/11 10:13:14;;;;;;;4.13;3.28;;;42.90;55.70;;;;;;4956503;29;20035;-67
2023/08/11 10:15:40;;;;;;;3.78;3.30;;;42.10;56.50;;;;;;4984305;23;20307;-66
2023/08/11 10:18:07;;;;;;;9.05;3.33;;;40.30;57.40;;;;;;4977316;28;20108;-67
2023/08/11 10:20:33;;;;;;;5.30;3.22;;;40.30;58.30;;;;;;4995007;28;20022;-67
2023/08/11 10:23:01;;;;;;;7.30;3.00;;;40.90;57.70;;;;;;4994825;28;20436;-68
2023/08/11 10:25:28;;;;;;;5.32;3.20;;;42.20;56.50;;;;;;4992376;28;20077;-68
2023/08/11 10:27:54;;;;;;;4.25;3.20;;;42.40;56.10;;;;;;4976008;28;20050;-67
2023/08/11 10:30:20;;;;;;;4.72;3.10;;;42.90;56.10;;;;;;4970705;28;20034;-67
2023/08/11 10:32:45;;;;;;;3.78;3.20;;;43.20;55.70;;;;;;4957611;28;20050;-68
2023/08/11 10:35:32;;;;;;;4.55;3.30;;;43.50;55.30;;;;;;4975156;28;20503;-67
2023/08/11 10:37:59;;;;;;;4.07;3.42;;;43.30;55.30;;;;;;4973141;28;20019;-67
2023/08/11 10:40:39;;;;;;;5.13;3.35;;;43.60;55.30;;;;;;4974923;28;20051;-67
2023/08/11 10:43:05;;;;;;;4.38;3.10;;;43.60;54.80;;;;;;4960824;28;20110;-67
2023/08/11 10:45:32;;;;;;;4.18;3.20;;;43.30;55.10;;;;;;4975547;28;20057;-68
2023/08/11 10:47:58;;;;;;;3.47;2.83;;;42.60;55.20;;;;;;4979953;28;20518;-67
2023/08/11 10:50:25;;;;;;;5.97;3.53;;;42.20;56.10;;;;;;4975886;28;20026;-67
2023/08/11 10:53:16;;;;;;;4.50;3.00;;;42.60;55.50;;;;;;4957427;28;20059;-68
2023/08/11 10:56:01;;;;;;;5.80;3.03;;;42.40;55.30;;;;;;4974821;28;20035;-68
2023/08/11 10:58:29;;;;;;;3.00;2.67;;;42.00;55.60;;;;;;4974885;28;20337;-67
2023/08/11 11:00:56;;;;;;;4.15;3.50;;;41.70;55.80;;;;;;4957198;28;20027;-67
2023/08/11 11:03:22;;;;;;;8.85;3.25;;;40.40;57.10;;;;;;4974626;28;20109;-67
2023/08/11 11:05:48;;;;;;;4.93;3.25;;;39.60;58.10;;;;;;4974174;28;20488;-66
2023/08/11 11:08:13;;;;;;;3.00;2.72;;;40.10;58.10;;;;;;4974210;28;20031;-66
2023/08/11 11:10:41;;;;;;;5.43;2.80;;;40.40;57.50;;;;;;4974611;28;20144;-67
2023/08/11 11:13:06;;;;;;;4.57;2.78;;;39.90;58.00;;;;;;4974209;28;20027;-67
2023/08/11 11:15:33;;;;;;;3.50;3.08;;;39.50;58.30;;;;;;4973923;28;20042;-67
2023/08/11 11:17:59;;;;;;;4.18;2.85;;;37.60;59.40;;;;;;4974641;28;20172;-66
2023/08/11 11:20:25;;;;;;;3.42;2.90;;;35.80;61.00;;;;;;4974334;28;20031;-66
2023/08/11 11:22:51;;;;;;;8.18;3.38;;;34.00;63.80;;;;;;4956884;28;20049;-66
2023/08/11 11:25:18;;;;;;;6.35;3.45;;;33.00;65.60;;;;;;4956651;28;20476;-66
2023/08/11 11:27:44;;;;;;;3.95;3.20;;;32.50;67.90;;;;;;4975720;28;20486;-66
2023/08/11 11:30:11;;;;;;;3.83;2.78;;;31.90;67.20;;;;;;4978318;28;20031;-66
2023/08/11 11:32:37;;;;;;;6.25;3.15;;;31.50;67.50;;;;;;4978404;28;20141;-66
2023/08/11 11:35:04;;;;;;;8.98;2.95;;;31.10;67.60;;;;;;4978426;28;20110;-66
2023/08/11 11:37:32;;;;;;;3.75;2.85;;;30.80;68.60;;;;;;4978748;28;20050;-66
2023/08/11 11:39:58;;;;;;;6.40;3.00;;;30.70;68.70;;;;;;4962255;28;20105;-67
2023/08/11 11:42:29;;;;;;;3.83;3.33;;;30.30;69.70;;;;;;4978307;28;20431;-66
2023/08/11 11:44:55;;;;;;;6.57;3.10;;;29.70;70.40;;;;;;4978768;28;20464;-66
2023/08/11 11:47:21;;;;;;;3.40;2.95;;;29.70;72.20;;;;;;4978351;28;20056;-66
2023/08/11 11:49:54;;;;;;;4.40;3.00;;;29.40;73.30;;;;;;4978018;28;20092;-65
2023/08/11 11:52:20;;;;;;;5.18;3.20;;;29.40;74.30;;;;;;4978478;28;20372;-65
2023/08/11 11:54:54;;;;;;;5.63;3.28;;;29.30;74.00;;;;;;4960787;28;20029;-66
2023/08/11 11:57:21;;;;;;;4.25;3.72;;;29.30;74.60;;;;;;4978128;28;20023;-67
2023/08/11 11:59:47;;;;;;;4.25;3.20;;;29.30;75.10;;;;;;4960588;28;20027;-68
2023/08/11 12:02:14;;;;;;;3.63;3.33;;;29.10;75.30;;;;;;4977931;28;20023;-66
2023/08/11 12:04:44;;;;;;;6.57;3.40;;;29.00;75.20;;;;;;4977788;28;20049;-67
2023/08/11 12:07:23;;;;;;;6.57;3.33;;;29.10;75.80;;;;;;4959921;28;20065;-65
2023/08/11 12:09:50;;;;;;;6.30;3.40;;;29.10;76.30;;;;;;4977733;28;20499;-66
2023/08/11 12:12:16;;;;;;;3.78;3.25;;;29.10;76.50;;;;;;4960211;28;20058;-66
2023/08/11 12:14:42;;;;;;;3.72;3.00;;;29.00;76.60;;;;;;4960110;28;20069;-66
2023/08/11 12:17:08;;;;;;;3.55;3.25;;;29.00;77.00;;;;;;4977131;28;20038;-66
2023/08/11 12:19:33;;;;;;;3.58;3.15;;;28.80;76.90;;;;;;4977432;28;20043;-65
2023/08/11 12:22:00;;;;;;;4.38;3.42;;;28.90;77.70;;;;;;4959934;28;20023;-65
2023/08/11 12:24:26;;;;;;;5.88;2.92;;;29.10;77.70;;;;;;4977552;28;20022;-66
2023/08/11 12:26:51;;;;;;;4.30;2.88;;;29.20;75.70;;;;;;4977163;28;20046;-65
2023/08/11 12:29:17;;;;;;;7.85;2.83;;;29.40;75.10;;;;;;4959434;28;20472;-65
2023/08/11 12:31:42;;;;;;;3.67;2.83;;;29.60;74.70;;;;;;4976842;28;20023;-66
2023/08/11 12:34:08;;;;;;;3.05;2.50;;;29.70;73.90;;;;;;4977745;28;20376;-66
2023/08/11 12:36:33;;;;;;;3.70;2.40;;;29.80;74.00;;;;;;4976804;28;20436;-66
2023/08/11 12:38:59;;;;;;;4.82;2.60;;;29.80;73.60;;;;;;4977008;28;20483;-65
2023/08/11 12:41:24;;;;;;;5.30;2.70;;;29.70;74.10;;;;;;4977629;28;20102;-65
2023/08/11 12:43:50;;;;;;;4.45;2.83;;;29.60;74.10;;;;;;4977305;28;20030;-67
2023/08/11 12:46:15;;;;;;;4.35;3.08;;;29.70;74.50;;;;;;4959499;28;20506;-65
2023/08/11 12:48:42;;;;;;;5.43;3.20;;;29.70;74.40;;;;;;4977035;28;20035;-66
2023/08/11 12:51:07;;;;;;;3.83;2.67;;;29.60;74.60;;;;;;4976898;28;20023;-65
2023/08/11 12:53:33;;;;;;;8.40;2.90;;;29.50;72.70;;;;;;4977079;28;20089;-65
2023/08/11 12:55:58;;;;;;;3.83;2.63;;;29.40;73.40;;;;;;4976146;28;20376;-66
2023/08/11 12:58:24;;;;;;;4.60;2.67;;;29.40;73.50;;;;;;4976404;28;20543;-65
2023/08/11 13:00:50;;;;;;;3.58;2.50;;;29.40;74.10;;;;;;4976557;28;20054;-66
2023/08/11 13:03:15;;;;;;;5.28;3.22;;;29.60;75.20;;;;;;4958775;28;20039;-66
2023/08/11 13:05:41;;;;;;;3.40;2.80;;;29.70;75.60;;;;;;4976203;28;20026;-65
2023/08/11 13:08:06;;;;;;;5.55;2.75;;;29.90;75.60;;;;;;4976236;28;20114;-66
2023/08/11 13:10:32;;;;;;;5.13;2.72;;;29.80;74.70;;;;;;4976551;28;20101;-65
2023/08/11 13:12:57;;;;;;;4.13;2.70;;;29.80;75.30;;;;;;4976206;28;20097;-66
2023/08/11 13:15:23;;;;;;;5.03;2.78;;;29.80;76.00;;;;;;4975626;28;20526;-66
2023/08/11 13:17:48;;;;;;;5.18;3.22;;;29.80;76.40;;;;;;4958444;28;20042;-67
2023/08/11 13:20:15;;;;;;;3.90;3.00;;;29.90;76.10;;;;;;4975861;28;20480;-66
2023/08/11 13:22:41;;;;;;;4.10;2.72;;;30.00;76.00;;;;;;4975862;28;20105;-67
2023/08/11 13:25:07;;;;;;;4.93;2.65;;;30.10;75.70;;;;;;4975725;28;20041;-67
2023/08/11 13:27:32;;;;;;;5.43;2.50;;;30.10;75.70;;;;;;4975779;28;20491;-66
2023/08/11 13:29:58;;;;;;;3.45;2.70;;;30.10;75.70;;;;;;4976387;28;20026;-66
2023/08/11 13:32:24;;;;;;;3.38;2.80;;;30.20;75.80;;;;;;4975901;28;20074;-69
2023/08/11 13:34:49;;;;;;;7.05;2.90;;;30.20;75.80;;;;;;4976103;28;20098;-66
2023/08/11 13:37:15;;;;;;;4.18;3.22;;;30.30;75.80;;;;;;4975722;28;20444;-66
2023/08/11 13:39:40;;;;;;;4.80;2.90;;;30.30;75.80;;;;;;4975718;28;20027;-66
2023/08/11 13:42:06;;;;;;;4.43;2.83;;;30.30;75.80;;;;;;4975805;28;20464;-65
2023/08/11 13:44:32;;;;;;;3.05;2.55;;;30.30;75.20;;;;;;4975528;28;20110;-65
2023/08/11 13:46:58;;;;;;;5.68;2.95;;;30.40;75.50;;;;;;4975595;28;20403;-66
2023/08/11 13:49:24;;;;;;;7.15;3.55;;;30.40;76.40;;;;;;4975653;28;20081;-66
2023/08/11 13:51:50;;;;;;;4.10;2.88;;;30.50;75.10;;;;;;4975135;28;20050;-67
2023/08/11 13:54:15;;;;;;;5.05;2.83;;;30.60;75.10;;;;;;4975587;28;20030;-66
2023/08/11 13:56:41;;;;;;;4.47;2.85;;;30.50;75.30;;;;;;4975458;28;20027;-65
2023/08/11 13:59:06;;;;;;;4.95;2.78;;;30.50;76.00;;;;;;4975783;28;20034;-64
2023/08/11 14:01:32;;;;;;;5.60;2.95;;;30.50;76.60;;;;;;4958407;28;20031;-65
2023/08/11 14:03:57;;;;;;;3.25;2.53;;;30.50;77.40;;;;;;4975800;28;20023;-67
2023/08/11 14:06:23;;;;;;;4.38;2.78;;;30.50;76.20;;;;;;4975115;28;20031;-66
2023/08/11 14:08:48;;;;;;;3.58;2.75;;;30.40;77.40;;;;;;4975618;28;20085;-65
2023/08/11 14:11:15;;;;;;;5.50;2.95;;;30.40;77.70;;;;;;4975318;28;20031;-66
2023/08/11 14:13:41;;;;;;;3.58;2.47;;;30.60;77.80;;;;;;4975274;28;20030;-67
2023/08/11 14:16:06;;;;;;;5.55;2.72;;;30.60;77.40;;;;;;4974979;28;20038;-65
2023/08/11 14:18:32;;;;;;;4.03;2.80;;;30.70;77.50;;;;;;4975613;28;20085;-65
2023/08/11 14:20:58;;;;;;;6.35;3.03;;;30.60;76.50;;;;;;4975411;28;20018;-65
2023/08/11 14:23:23;;;;;;;2.97;2.67;;;30.60;76.20;;;;;;4975559;28;20031;-65
2023/08/11 14:25:49;;;;;;;3.25;2.80;;;30.60;76.70;;;;;;4975546;28;20034;-65
2023/08/11 14:28:15;;;;;;;4.57;2.70;;;30.70;76.70;;;;;;4975680;28;20364;-65
2023/08/11 14:30:41;;;;;;;2.92;2.45;;;30.80;77.00;;;;;;4975187;28;20480;-66
2023/08/11 14:33:07;;;;;;;3.55;2.85;;;31.00;76.20;;;;;;4975146;28;20169;-65
2023/08/11 14:35:32;;;;;;;5.90;3.13;;;31.00;75.70;;;;;;4975286;28;20037;-66
2023/08/11 14:37:58;;;;;;;3.95;2.97;;;31.00;75.50;;;;;;4957869;28;20023;-67
2023/08/11 14:40:24;;;;;;;3.22;2.78;;;31.00;75.70;;;;;;4974940;28;20363;-71
2023/08/11 14:42:50;;;;;;;6.00;3.10;;;31.00;74.50;;;;;;4958046;28;20058;-69
2023/08/11 14:45:15;;;;;;;3.97;2.78;;;30.80;74.40;;;;;;4957924;28;20045;-72
2023/08/11 14:47:41;;;;;;;3.85;2.80;;;30.60;73.00;;;;;;4978417;28;20508;-72
2023/08/11 14:50:07;;;;;;;6.28;2.70;;;30.70;72.70;;;;;;4978061;28;20034;-72
2023/08/11 14:52:32;;;;;;;3.45;2.42;;;30.70;72.70;;;;;;4977414;28;20027;-68
2023/08/11 14:54:58;;;;;;;3.50;2.95;;;30.60;71.30;;;;;;4959920;28;20396;-70
2023/08/11 14:57:23;;;;;;;3.95;2.90;;;30.70;71.30;;;;;;4976834;28;20030;-69
2023/08/11 14:59:49;;;;;;;3.50;2.78;;;30.70;70.90;;;;;;4958729;28;20026;-68
2023/08/11 15:02:14;;;;;;;3.83;3.20;;;30.70;70.90;;;;;;4976711;28;20208;-68
2023/08/11 15:04:40;;;;;;;3.08;2.47;;;30.70;71.30;;;;;;4977832;28;20105;-69
2023/08/11 15:07:06;;;;;;;3.13;2.22;;;30.60;70.90;;;;;;4976612;28;20031;-69
2023/08/11 15:09:32;;;;;;;3.30;3.00;;;30.50;70.40;;;;;;4976691;28;20106;-70
2023/08/11 15:11:58;;;;;;;4.80;3.25;;;30.50;71.20;;;;;;4958146;28;20022;-68
2023/08/11 15:14:23;;;;;;;4.03;2.70;;;30.50;71.60;;;;;;4974893;28;20030;-68
2023/08/11 15:16:49;;;;;;;3.72;2.33;;;30.40;71.50;;;;;;4956758;28;20031;-68
2023/08/11 15:19:15;;;;;;;3.67;2.67;;;30.50;71.30;;;;;;4974496;28;20027;-65
2023/08/11 15:21:40;;;;;;;2.72;2.15;;;30.50;71.40;;;;;;4974427;28;20034;-70
2023/08/11 15:24:06;;;;;;;3.38;2.10;;;30.40;71.40;;;;;;4957146;28;20547;-67
2023/08/11 15:26:32;;;;;;;2.95;2.17;;;30.40;71.40;;;;;;4974514;28;20138;-66
2023/08/11 15:28:59;;;;;;;4.22;2.20;;;30.20;71.40;;;;;;4957220;28;20135;-68
2023/08/11 15:31:25;;;;;;;3.25;2.72;;;30.10;72.20;;;;;;4974283;28;20106;-67
2023/08/11 15:33:50;;;;;;;2.70;2.40;;;30.10;72.90;;;;;;4974324;28;20515;-66
2023/08/11 15:36:16;;;;;;;4.32;2.00;;;30.00;72.50;;;;;;4974130;28;20126;-68
2023/08/11 15:38:41;;;;;;;3.30;2.35;;;30.00;71.50;;;;;;4956835;28;20058;-67
2023/08/11 15:41:07;;;;;;;5.93;3.97;;;30.10;72.20;;;;;;4974118;28;20054;-67
2023/08/11 15:43:32;;;;;;;3.38;2.67;;;30.20;72.10;;;;;;4957278;28;20114;-73
2023/08/11 15:45:58;;;;;;;3.42;2.65;;;30.40;72.00;;;;;;4957687;28;20038;-70
2023/08/11 15:48:24;;;;;;;4.22;2.60;;;30.50;72.40;;;;;;4974811;28;20039;-69
2023/08/11 15:50:49;;;;;;;3.50;2.60;;;30.50;72.40;;;;;;4974418;28;20026;-70
2023/08/11 15:53:15;;;;;;;5.22;4.15;;;30.40;72.60;;;;;;4957806;28;20023;-70
2023/08/11 15:55:40;;;;;;;3.97;2.30;;;30.20;73.10;;;;;;4956959;28;20034;-70
2023/08/11 15:58:06;;;;;;;4.30;2.50;;;30.10;72.60;;;;;;4956921;28;20023;-70
2023/08/11 16:00:32;;;;;;;3.70;2.90;;;30.10;73.50;;;;;;4962072;28;20214;-69
2023/08/11 16:02:57;;;;;;;12.90;8.63;;;30.20;73.70;;;;;;4973987;28;20102;-71
2023/08/11 16:05:23;;;;;;;20.58;13.57;;;30.20;73.40;;;;;;4974664;28;20101;-69
2023/08/11 16:07:49;;;;;;;12.80;8.93;;;30.20;73.10;;;;;;4973920;28;20054;-71
2023/08/11 16:10:14;;;;;;;3.88;2.85;;;30.10;73.40;;;;;;4956974;28;20373;-69
2023/08/11 16:12:42;;;;;;;4.53;2.88;;;30.00;73.40;;;;;;4974285;28;20372;-68
2023/08/11 16:15:08;;;;;;;4.43;3.97;;;29.80;73.50;;;;;;4978183;28;20404;-66
2023/08/11 16:17:35;;;;;;;5.80;3.10;;;29.80;73.80;;;;;;4976104;23;20050;-68
2023/08/11 16:20:00;;;;;;;5.00;2.88;;;29.80;74.20;;;;;;4958395;29;20111;-67
2023/08/11 16:22:26;;;;;;;6.15;2.85;;;29.70;74.20;;;;;;4958231;29;20102;-67
2023/08/11 16:24:51;;;;;;;5.50;3.15;;;29.80;74.70;;;;;;4941124;29;20020;-68
2023/08/11 16:27:17;;;;;;;6.03;2.80;;;29.70;75.20;;;;;;4941752;29;20028;-67
2023/08/11 16:29:42;;;;;;;6.00;2.78;;;29.70;75.20;;;;;;4959136;29;20058;-69
2023/08/11 16:32:08;;;;;;;3.60;2.83;;;29.70;75.20;;;;;;4959944;29;20162;-68
2023/08/11 16:34:34;;;;;;;4.30;2.80;;;29.70;74.20;;;;;;4959084;29;20046;-68
2023/08/11 16:37:00;;;;;;;5.18;3.60;;;29.60;74.90;;;;;;4941425;29;20039;-67
2023/08/11 16:39:25;;;;;;;4.00;2.83;;;29.60;75.10;;;;;;4958427;29;20404;-67
2023/08/11 16:41:51;;;;;;;5.72;3.25;;;29.40;76.00;;;;;;4958297;29;20369;-67
2023/08/11 16:44:16;;;;;;;8.55;5.03;;;29.30;76.20;;;;;;4958247;29;20030;-66